Lambay — A8YA6 — position and weather

sailwx.info

Track history (hours):
 
Tides and Currents Weather Stations Pressure Air Temp Water Temp Dewpoint Dewpoint Depression Visibility Wind Speed Wind Dir Waves Ship Positions

Lambay

Last reported at 2017-Oct-17 13:00 UTC. Time now 2017-Oct-17 13:09 UTC.
Position N 00°09' W 050°56'.

Length 225 m; draft 11.6 m.

Type: Cargo ship. MMSI: 636015008.

Date/timePositionNaut miles runAvg speedWind from/ knotsBaromVisibWave heightAir tempDewpointWater temp
2017-Oct-17 13:00N 00°09' W 050°56'5 9.8
2017-Oct-17 12:30N 00°05' W 050°59'510.6
2017-Oct-17 12:00N 00°00' W 051°01'5 9.9
2017-Oct-17 11:30S 00°03' W 051°05'2 3.0
2017-Oct-17 10:58S 00°04' W 051°06'0 0.1
2017-Oct-17 10:28S 00°04' W 051°06'0 0.0
2017-Oct-17 09:58S 00°04' W 051°06'0 0.0
2017-Oct-17 09:28S 00°04' W 051°06'0 0.0
2017-Oct-17 08:58S 00°04' W 051°06'0 0.0
2017-Oct-17 08:28S 00°04' W 051°06'0 0.0
2017-Oct-17 07:52S 00°04' W 051°06'0 0.0
2017-Oct-17 07:28S 00°04' W 051°06'0 0.2
2017-Oct-17 06:55S 00°04' W 051°06'0 0.3
2017-Oct-17 06:25S 00°04' W 051°06'0 0.1
2017-Oct-17 05:55S 00°04' W 051°06'0 0.1
2017-Oct-17 05:25S 00°04' W 051°06'0 0.0
2017-Oct-17 04:55S 00°04' W 051°06'0 0.0
2017-Oct-17 04:25S 00°04' W 051°06'0 0.0
2017-Oct-17 03:55S 00°04' W 051°06'0 0.0
2017-Oct-17 03:13S 00°04' W 051°06'0 0.0
2017-Oct-17 02:55S 00°04' W 051°06'0 0.0
2017-Oct-17 02:25S 00°04' W 051°06'0 0.3
2017-Oct-17 01:55S 00°04' W 051°06'0 0.9
2017-Oct-17 01:30S 00°04' W 051°06'3 6.0
2017-Oct-17 01:00S 00°02' W 051°03'4 7.8
2017-Oct-17 00:30N 00°01' W 051°01'3 6.6
2017-Oct-17 00:00S 00°02' W 050°60'613.0
2017-Oct-16 23:31S 00°09' W 051°02'  
2017-Oct-12 04:40S 00°14' W 051°19'212.0
2017-Oct-12 04:30S 00°13' W 051°18'612.3
2017-Oct-12 04:00S 00°08' W 051°14'611.5
2017-Oct-12 03:30S 00°06' W 051°08'3 6.7
2017-Oct-12 03:00S 00°04' W 051°06'2 3.8
2017-Oct-12 02:30S 00°03' W 051°04'3 6.5
2017-Oct-12 02:00S 00°00' W 051°02'3 6.4
2017-Oct-12 01:30N 00°02' W 050°60'2 3.3
2017-Oct-12 01:00N 00°03' W 050°58'0 0.1
2017-Oct-12 00:30N 00°03' W 050°58'0 0.1
2017-Oct-11 23:54N 00°03' W 050°58'0 0.0
2017-Oct-11 23:27N 00°03' W 050°58'0 0.0
2017-Oct-11 22:57N 00°03' W 050°58'0 0.0
2017-Oct-11 22:27N 00°03' W 050°58'0 0.9
2017-Oct-11 21:57N 00°03' W 050°58'0 0.9
2017-Oct-11 21:27N 00°03' W 050°58'0 0.1
2017-Oct-11 20:57N 00°03' W 050°58'0 0.0
2017-Oct-11 20:27N 00°03' W 050°58'0 0.1
2017-Oct-11 19:57N 00°03' W 050°58'0 0.3
2017-Oct-11 19:27N 00°03' W 050°58'0 0.1
2017-Oct-11 18:57N 00°03' W 050°58'0 0.0
2017-Oct-11 18:15N 00°03' W 050°58'0 0.1
2017-Oct-11 17:57N 00°03' W 050°58'0 0.0
2017-Oct-11 17:27N 00°03' W 050°58'0 0.0
2017-Oct-11 16:57N 00°03' W 050°58'0 0.0
2017-Oct-10 23:57N 00°03' W 050°58'0 0.1
2017-Oct-10 23:27N 00°03' W 050°58'0 0.1
2017-Oct-10 22:57N 00°03' W 050°58'0 0.0
2017-Oct-10 22:27N 00°03' W 050°58'0 0.2
2017-Oct-10 21:57N 00°03' W 050°58'0 0.2
2017-Oct-10 21:27N 00°03' W 050°58'0 0.0
2017-Oct-10 20:57N 00°03' W 050°58'0 0.0
2017-Oct-10 20:27N 00°03' W 050°58'0 0.0
2017-Oct-10 19:51N 00°03' W 050°58'0 0.1
2017-Oct-10 19:27N 00°03' W 050°58'0 0.0
2017-Oct-10 18:57N 00°03' W 050°58'0 0.2
2017-Oct-10 18:27N 00°03' W 050°58'0 0.3
2017-Oct-10 17:57N 00°03' W 050°58'0 0.0
2017-Oct-10 17:27N 00°03' W 050°58'0 0.1
2017-Oct-10 16:57N 00°03' W 050°58'0 0.2
2017-Oct-10 16:27N 00°03' W 050°58'1 2.1
2017-Oct-10 16:00N 00°04' W 050°58'0 0.3
2017-Oct-10 15:30N 00°04' W 050°58'0 0.1
2017-Oct-10 15:00N 00°04' W 050°58'0 0.0
2017-Oct-10 14:00N 00°04' W 050°58'0 0.0
2017-Oct-10 13:30N 00°04' W 050°58'0 0.0
2017-Oct-10 13:00N 00°04' W 050°58'0 0.0
2017-Oct-10 12:30N 00°04' W 050°58'0 0.0
2017-Oct-10 12:00N 00°04' W 050°58'0 0.3
2017-Oct-10 11:30N 00°04' W 050°58'0 0.2
2017-Oct-10 11:00N 00°04' W 050°58'0 0.0
2017-Oct-10 10:30N 00°04' W 050°58'0 0.0
2017-Oct-10 10:00N 00°04' W 050°58'0 0.0
2017-Oct-10 09:30N 00°04' W 050°58'0 0.0
2017-Oct-10 09:00N 00°04' W 050°58'0 0.0
2017-Oct-10 08:24N 00°04' W 050°58'0 0.0
2017-Oct-10 07:54N 00°04' W 050°58'0 0.0
2017-Oct-10 07:30N 00°04' W 050°58'0 0.0
2017-Oct-10 07:00N 00°04' W 050°58'0 0.1
2017-Oct-10 06:30N 00°04' W 050°58'0 0.0
2017-Oct-10 05:54N 00°04' W 050°58'0 0.2
2017-Oct-10 05:30N 00°04' W 050°58'0 0.4
2017-Oct-10 05:00N 00°04' W 050°58'0 0.1
2017-Oct-10 04:24N 00°04' W 050°58'0 0.2
2017-Oct-10 04:00N 00°04' W 050°58'0 0.1
2017-Oct-10 03:30N 00°04' W 050°58'0 0.0
2017-Oct-10 03:00N 00°04' W 050°58'0 0.1
2017-Oct-10 02:30N 00°04' W 050°58'0 0.0
2017-Oct-10 02:00N 00°04' W 050°58'0 0.0
2017-Oct-10 01:30N 00°04' W 050°58'0 0.0
2017-Oct-10 01:00N 00°04' W 050°58'0 0.0
2017-Oct-10 00:30N 00°04' W 050°58'0 0.1
2017-Oct-10 00:00N 00°04' W 050°58'0 0.2
2017-Oct-09 23:30N 00°04' W 050°58'0 0.1
2017-Oct-09 23:00N 00°04' W 050°58'0 0.1
2017-Oct-09 22:21N 00°04' W 050°58'0 0.0
2017-Oct-09 21:57N 00°04' W 050°58'0 0.0
2017-Oct-09 21:27N 00°04' W 050°58'0 0.0
2017-Oct-09 20:57N 00°04' W 050°58'0 0.0
2017-Oct-09 20:27N 00°04' W 050°58'0 0.0
2017-Oct-09 19:57N 00°04' W 050°58'0 0.0
2017-Oct-09 19:27N 00°04' W 050°58'0 0.0
2017-Oct-09 18:57N 00°04' W 050°58'0 0.0
2017-Oct-09 18:27N 00°04' W 050°58'0 0.0
2017-Oct-09 17:57N 00°04' W 050°58'0 0.3
2017-Oct-09 17:27N 00°04' W 050°58'0 0.2
2017-Oct-09 16:57N 00°04' W 050°58'0 0.2
2017-Oct-09 16:27N 00°04' W 050°58'0 0.2
2017-Oct-09 15:57N 00°04' W 050°58'0 0.0
2017-Oct-09 15:27N 00°04' W 050°58'0 0.3
2017-Oct-09 14:57N 00°04' W 050°58'0 0.3
2017-Oct-09 14:27N 00°04' W 050°58'0 0.0
2017-Oct-09 13:57N 00°04' W 050°58'0 0.0
2017-Oct-09 13:27N 00°04' W 050°58'0 0.0
2017-Oct-09 12:57N 00°04' W 050°58'0 0.0
2017-Oct-09 12:27N 00°04' W 050°58'0 0.0
2017-Oct-09 11:57N 00°04' W 050°58'0 0.0
2017-Oct-09 11:27N 00°04' W 050°58'0 0.1
2017-Oct-09 10:57N 00°04' W 050°58'0 0.2
2017-Oct-09 10:27N 00°04' W 050°58'0 0.3
2017-Oct-09 09:51N 00°04' W 050°58'0 0.1
2017-Oct-09 09:27N 00°04' W 050°58'0 0.0
2017-Oct-09 08:57N 00°04' W 050°58'0 0.0
2017-Oct-09 08:27N 00°04' W 050°58'0 0.0
2017-Oct-09 07:57N 00°04' W 050°58'0 0.0
2017-Oct-09 07:27N 00°04' W 050°58'0 0.0
2017-Oct-09 06:51N 00°04' W 050°58'0 0.0
2017-Oct-09 06:27N 00°04' W 050°58'0 0.0
2017-Oct-09 05:57N 00°04' W 050°58'0 0.0
2017-Oct-09 05:27N 00°04' W 050°58'0 0.2
2017-Oct-09 04:57N 00°04' W 050°58'0 0.3
2017-Oct-09 04:28N 00°04' W 050°58'0 0.1
2017-Oct-09 03:57N 00°04' W 050°58'0 0.0
2017-Oct-09 03:30N 00°04' W 050°58'0 0.0
2017-Oct-09 03:00N 00°04' W 050°58'0 0.0
2017-Oct-09 02:24N 00°04' W 050°58'0 0.0
2017-Oct-09 02:00N 00°04' W 050°58'0 0.0
2017-Oct-09 01:30N 00°04' W 050°58'0 0.0
2017-Oct-09 01:00N 00°04' W 050°58'0 0.0
2017-Oct-09 00:30N 00°04' W 050°58'0 0.0
2017-Oct-09 00:00N 00°04' W 050°58'0 0.2
2017-Oct-08 23:30N 00°04' W 050°58'0 0.1
2017-Oct-08 23:00N 00°04' W 050°58'0 0.2
2017-Oct-08 22:30N 00°04' W 050°58'0 0.1
2017-Oct-08 22:00N 00°04' W 050°58'0 0.1
2017-Oct-08 21:30N 00°04' W 050°58'0 0.1
2017-Oct-08 21:00N 00°04' W 050°58'0 0.0
2017-Oct-08 20:30N 00°04' W 050°58'0 0.0
2017-Oct-08 20:00N 00°04' W 050°58'0 0.0
2017-Oct-08 19:30N 00°04' W 050°58'0 0.0
2017-Oct-08 19:00N 00°04' W 050°58'0 0.0
2017-Oct-08 18:30N 00°04' W 050°58'0 0.0
2017-Oct-08 18:00N 00°04' W 050°58'0 0.0
2017-Oct-08 17:30N 00°04' W 050°58'0 0.0
2017-Oct-08 16:54N 00°04' W 050°58'0 0.3
2017-Oct-08 16:30N 00°04' W 050°58'0 0.3
2017-Oct-08 16:00N 00°04' W 050°58'0 0.1
2017-Oct-08 15:30N 00°04' W 050°58'0 0.0
2017-Oct-08 15:00N 00°04' W 050°58'0 0.0
2017-Oct-08 14:30N 00°04' W 050°58'0 0.0
2017-Oct-08 14:00N 00°04' W 050°58'0 0.0
2017-Oct-08 13:30N 00°04' W 050°58'0 0.0
2017-Oct-08 13:00N 00°04' W 050°58'0 0.0
2017-Oct-08 12:30N 00°04' W 050°58'0 0.0
2017-Oct-08 12:00N 00°04' W 050°58'0 0.0
2017-Oct-08 11:30N 00°04' W 050°58'0 0.0
2017-Oct-08 11:00N 00°04' W 050°58'0 0.0
2017-Oct-08 10:30N 00°04' W 050°58'0 0.2
2017-Oct-08 10:00N 00°04' W 050°58'0 0.3
2017-Oct-08 09:30N 00°04' W 050°58'0 0.1
2017-Oct-08 09:00N 00°04' W 050°58'0 0.0
2017-Oct-08 08:30N 00°04' W 050°58'0 0.0
2017-Oct-08 08:00N 00°04' W 050°58'0 0.0
2017-Oct-08 07:30N 00°04' W 050°58'0 0.0
2017-Oct-08 07:00N 00°04' W 050°58'0 0.0
2017-Oct-08 06:30N 00°04' W 050°58'0 0.0
2017-Oct-08 06:00N 00°04' W 050°58'0 0.0
2017-Oct-08 05:30N 00°04' W 050°58'0 0.0
2017-Oct-08 04:54N 00°04' W 050°58'0 0.4
2017-Oct-08 04:30N 00°04' W 050°58'0 0.2
2017-Oct-08 03:42N 00°04' W 050°58'0 0.0
2017-Oct-08 03:30N 00°04' W 050°58'0 0.0
2017-Oct-08 03:00N 00°04' W 050°58'0 0.0
2017-Oct-08 02:30N 00°04' W 050°58'0 0.0
2017-Oct-08 02:00N 00°04' W 050°58'0 0.0
2017-Oct-08 01:30N 00°04' W 050°58'0 0.0
2017-Oct-08 01:00N 00°04' W 050°58'0 0.0
2017-Oct-08 00:27N 00°04' W 050°58'0 0.0
2017-Oct-07 23:57N 00°04' W 050°58'0 0.0
2017-Oct-07 23:27N 00°04' W 050°58'0 0.0
2017-Oct-07 22:57N 00°04' W 050°58'0 0.1
2017-Oct-07 22:27N 00°04' W 050°58'0 0.2
2017-Oct-07 21:57N 00°04' W 050°58'0 0.3
2017-Oct-07 21:27N 00°04' W 050°58'0 0.1
2017-Oct-07 20:57N 00°04' W 050°58'0 0.0
2017-Oct-07 20:27N 00°04' W 050°58'0 0.0
2017-Oct-07 19:57N 00°04' W 050°58'0 0.0
2017-Oct-07 19:27N 00°04' W 050°58'0 0.0
2017-Oct-07 18:57N 00°04' W 050°58'0 0.0
2017-Oct-07 18:27N 00°04' W 050°58'0 0.0
2017-Oct-07 17:57N 00°04' W 050°58'0 0.0
2017-Oct-07 17:27N 00°04' W 050°58'0 0.0
2017-Oct-07 16:57N 00°04' W 050°58'0 0.0
2017-Oct-07 16:27N 00°04' W 050°58'0 0.3
2017-Oct-07 15:57N 00°04' W 050°58'0 0.5
2017-Oct-07 15:27N 00°04' W 050°58'0 0.2
2017-Oct-07 14:15N 00°04' W 050°58'0 0.0
2017-Oct-07 13:57N 00°04' W 050°58'0 0.0
2017-Oct-07 13:27N 00°04' W 050°58'  
Track history (hours):
 
Tides and Currents Weather Stations Pressure Air Temp Water Temp Dewpoint Dewpoint Depression Visibility Wind Speed Wind Dir Waves Ship Positions

Lambay

Last reported at 2017-Oct-17 13:00 UTC. Time now 2017-Oct-17 13:09 UTC.
Position N 00°09' W 050°56'.

Length 225 m; draft 11.6 m.

Type: Cargo ship. MMSI: 636015008.

Date/timePositionNaut miles runAvg speedWind from/ knotsBaromVisibWave heightAir tempDewpointWater temp
2017-Oct-17 13:00N 00°09' W 050°56'5 9.8
2017-Oct-17 12:30N 00°05' W 050°59'510.6
2017-Oct-17 12:00N 00°00' W 051°01'5 9.9
2017-Oct-17 11:30S 00°03' W 051°05'2 3.0
2017-Oct-17 10:58S 00°04' W 051°06'0 0.1
2017-Oct-17 10:28S 00°04' W 051°06'0 0.0
2017-Oct-17 09:58S 00°04' W 051°06'0 0.0
2017-Oct-17 09:28S 00°04' W 051°06'0 0.0
2017-Oct-17 08:58S 00°04' W 051°06'0 0.0
2017-Oct-17 08:28S 00°04' W 051°06'0 0.0
2017-Oct-17 07:52S 00°04' W 051°06'0 0.0
2017-Oct-17 07:28S 00°04' W 051°06'0 0.2
2017-Oct-17 06:55S 00°04' W 051°06'0 0.3
2017-Oct-17 06:25S 00°04' W 051°06'0 0.1
2017-Oct-17 05:55S 00°04' W 051°06'0 0.1
2017-Oct-17 05:25S 00°04' W 051°06'0 0.0
2017-Oct-17 04:55S 00°04' W 051°06'0 0.0
2017-Oct-17 04:25S 00°04' W 051°06'0 0.0
2017-Oct-17 03:55S 00°04' W 051°06'0 0.0
2017-Oct-17 03:13S 00°04' W 051°06'0 0.0
2017-Oct-17 02:55S 00°04' W 051°06'0 0.0
2017-Oct-17 02:25S 00°04' W 051°06'0 0.3
2017-Oct-17 01:55S 00°04' W 051°06'0 0.9
2017-Oct-17 01:30S 00°04' W 051°06'3 6.0
2017-Oct-17 01:00S 00°02' W 051°03'4 7.8
2017-Oct-17 00:30N 00°01' W 051°01'3 6.6
2017-Oct-17 00:00S 00°02' W 050°60'613.0
2017-Oct-16 23:31S 00°09' W 051°02'  
2017-Oct-12 04:40S 00°14' W 051°19'212.0
2017-Oct-12 04:30S 00°13' W 051°18'612.3
2017-Oct-12 04:00S 00°08' W 051°14'611.5
2017-Oct-12 03:30S 00°06' W 051°08'3 6.7
2017-Oct-12 03:00S 00°04' W 051°06'2 3.8
2017-Oct-12 02:30S 00°03' W 051°04'3 6.5
2017-Oct-12 02:00S 00°00' W 051°02'3 6.4
2017-Oct-12 01:30N 00°02' W 050°60'2 3.3
2017-Oct-12 01:00N 00°03' W 050°58'0 0.1
2017-Oct-12 00:30N 00°03' W 050°58'0 0.1
2017-Oct-11 23:54N 00°03' W 050°58'0 0.0
2017-Oct-11 23:27N 00°03' W 050°58'0 0.0
2017-Oct-11 22:57N 00°03' W 050°58'0 0.0
2017-Oct-11 22:27N 00°03' W 050°58'0 0.9
2017-Oct-11 21:57N 00°03' W 050°58'0 0.9
2017-Oct-11 21:27N 00°03' W 050°58'0 0.1
2017-Oct-11 20:57N 00°03' W 050°58'0 0.0
2017-Oct-11 20:27N 00°03' W 050°58'0 0.1
2017-Oct-11 19:57N 00°03' W 050°58'0 0.3
2017-Oct-11 19:27N 00°03' W 050°58'0 0.1
2017-Oct-11 18:57N 00°03' W 050°58'0 0.0
2017-Oct-11 18:15N 00°03' W 050°58'0 0.1
2017-Oct-11 17:57N 00°03' W 050°58'0 0.0
2017-Oct-11 17:27N 00°03' W 050°58'0 0.0
2017-Oct-11 16:57N 00°03' W 050°58'0 0.0
2017-Oct-10 23:57N 00°03' W 050°58'0 0.1
2017-Oct-10 23:27N 00°03' W 050°58'0 0.1
2017-Oct-10 22:57N 00°03' W 050°58'0 0.0
2017-Oct-10 22:27N 00°03' W 050°58'0 0.2
2017-Oct-10 21:57N 00°03' W 050°58'0 0.2
2017-Oct-10 21:27N 00°03' W 050°58'0 0.0
2017-Oct-10 20:57N 00°03' W 050°58'0 0.0
2017-Oct-10 20:27N 00°03' W 050°58'0 0.0
2017-Oct-10 19:51N 00°03' W 050°58'0 0.1
2017-Oct-10 19:27N 00°03' W 050°58'0 0.0
2017-Oct-10 18:57N 00°03' W 050°58'0 0.2
2017-Oct-10 18:27N 00°03' W 050°58'0 0.3
2017-Oct-10 17:57N 00°03' W 050°58'0 0.0
2017-Oct-10 17:27N 00°03' W 050°58'0 0.1
2017-Oct-10 16:57N 00°03' W 050°58'0 0.2
2017-Oct-10 16:27N 00°03' W 050°58'1 2.1
2017-Oct-10 16:00N 00°04' W 050°58'0 0.3
2017-Oct-10 15:30N 00°04' W 050°58'0 0.1
2017-Oct-10 15:00N 00°04' W 050°58'0 0.0
2017-Oct-10 14:00N 00°04' W 050°58'0 0.0
2017-Oct-10 13:30N 00°04' W 050°58'0 0.0
2017-Oct-10 13:00N 00°04' W 050°58'0 0.0
2017-Oct-10 12:30N 00°04' W 050°58'0 0.0
2017-Oct-10 12:00N 00°04' W 050°58'0 0.3
2017-Oct-10 11:30N 00°04' W 050°58'0 0.2
2017-Oct-10 11:00N 00°04' W 050°58'0 0.0
2017-Oct-10 10:30N 00°04' W 050°58'0 0.0
2017-Oct-10 10:00N 00°04' W 050°58'0 0.0
2017-Oct-10 09:30N 00°04' W 050°58'0 0.0
2017-Oct-10 09:00N 00°04' W 050°58'0 0.0
2017-Oct-10 08:24N 00°04' W 050°58'0 0.0
2017-Oct-10 07:54N 00°04' W 050°58'0 0.0
2017-Oct-10 07:30N 00°04' W 050°58'0 0.0
2017-Oct-10 07:00N 00°04' W 050°58'0 0.1
2017-Oct-10 06:30N 00°04' W 050°58'0 0.0
2017-Oct-10 05:54N 00°04' W 050°58'0 0.2
2017-Oct-10 05:30N 00°04' W 050°58'0 0.4
2017-Oct-10 05:00N 00°04' W 050°58'0 0.1
2017-Oct-10 04:24N 00°04' W 050°58'0 0.2
2017-Oct-10 04:00N 00°04' W 050°58'0 0.1
2017-Oct-10 03:30N 00°04' W 050°58'0 0.0
2017-Oct-10 03:00N 00°04' W 050°58'0 0.1
2017-Oct-10 02:30N 00°04' W 050°58'0 0.0
2017-Oct-10 02:00N 00°04' W 050°58'0 0.0
2017-Oct-10 01:30N 00°04' W 050°58'0 0.0
2017-Oct-10 01:00N 00°04' W 050°58'0 0.0
2017-Oct-10 00:30N 00°04' W 050°58'0 0.1
2017-Oct-10 00:00N 00°04' W 050°58'0 0.2
2017-Oct-09 23:30N 00°04' W 050°58'0 0.1
2017-Oct-09 23:00N 00°04' W 050°58'0 0.1
2017-Oct-09 22:21N 00°04' W 050°58'0 0.0
2017-Oct-09 21:57N 00°04' W 050°58'0 0.0
2017-Oct-09 21:27N 00°04' W 050°58'0 0.0
2017-Oct-09 20:57N 00°04' W 050°58'0 0.0
2017-Oct-09 20:27N 00°04' W 050°58'0 0.0
2017-Oct-09 19:57N 00°04' W 050°58'0 0.0
2017-Oct-09 19:27N 00°04' W 050°58'0 0.0
2017-Oct-09 18:57N 00°04' W 050°58'0 0.0
2017-Oct-09 18:27N 00°04' W 050°58'0 0.0
2017-Oct-09 17:57N 00°04' W 050°58'0 0.3
2017-Oct-09 17:27N 00°04' W 050°58'0 0.2
2017-Oct-09 16:57N 00°04' W 050°58'0 0.2
2017-Oct-09 16:27N 00°04' W 050°58'0 0.2
2017-Oct-09 15:57N 00°04' W 050°58'0 0.0
2017-Oct-09 15:27N 00°04' W 050°58'0 0.3
2017-Oct-09 14:57N 00°04' W 050°58'0 0.3
2017-Oct-09 14:27N 00°04' W 050°58'0 0.0
2017-Oct-09 13:57N 00°04' W 050°58'0 0.0
2017-Oct-09 13:27N 00°04' W 050°58'0 0.0
2017-Oct-09 12:57N 00°04' W 050°58'0 0.0
2017-Oct-09 12:27N 00°04' W 050°58'0 0.0
2017-Oct-09 11:57N 00°04' W 050°58'0 0.0
2017-Oct-09 11:27N 00°04' W 050°58'0 0.1
2017-Oct-09 10:57N 00°04' W 050°58'0 0.2
2017-Oct-09 10:27N 00°04' W 050°58'0 0.3
2017-Oct-09 09:51N 00°04' W 050°58'0 0.1
2017-Oct-09 09:27N 00°04' W 050°58'0 0.0
2017-Oct-09 08:57N 00°04' W 050°58'0 0.0
2017-Oct-09 08:27N 00°04' W 050°58'0 0.0
2017-Oct-09 07:57N 00°04' W 050°58'0 0.0
2017-Oct-09 07:27N 00°04' W 050°58'0 0.0
2017-Oct-09 06:51N 00°04' W 050°58'0 0.0
2017-Oct-09 06:27N 00°04' W 050°58'0 0.0
2017-Oct-09 05:57N 00°04' W 050°58'0 0.0
2017-Oct-09 05:27N 00°04' W 050°58'0 0.2
2017-Oct-09 04:57N 00°04' W 050°58'0 0.3
2017-Oct-09 04:28N 00°04' W 050°58'0 0.1
2017-Oct-09 03:57N 00°04' W 050°58'0 0.0
2017-Oct-09 03:30N 00°04' W 050°58'0 0.0
2017-Oct-09 03:00N 00°04' W 050°58'0 0.0
2017-Oct-09 02:24N 00°04' W 050°58'0 0.0
2017-Oct-09 02:00N 00°04' W 050°58'0 0.0
2017-Oct-09 01:30N 00°04' W 050°58'0 0.0
2017-Oct-09 01:00N 00°04' W 050°58'0 0.0
2017-Oct-09 00:30N 00°04' W 050°58'0 0.0
2017-Oct-09 00:00N 00°04' W 050°58'0 0.2
2017-Oct-08 23:30N 00°04' W 050°58'0 0.1
2017-Oct-08 23:00N 00°04' W 050°58'0 0.2
2017-Oct-08 22:30N 00°04' W 050°58'0 0.1
2017-Oct-08 22:00N 00°04' W 050°58'0 0.1
2017-Oct-08 21:30N 00°04' W 050°58'0 0.1
2017-Oct-08 21:00N 00°04' W 050°58'0 0.0
2017-Oct-08 20:30N 00°04' W 050°58'0 0.0
2017-Oct-08 20:00N 00°04' W 050°58'0 0.0
2017-Oct-08 19:30N 00°04' W 050°58'0 0.0
2017-Oct-08 19:00N 00°04' W 050°58'0 0.0
2017-Oct-08 18:30N 00°04' W 050°58'0 0.0
2017-Oct-08 18:00N 00°04' W 050°58'0 0.0
2017-Oct-08 17:30N 00°04' W 050°58'0 0.0
2017-Oct-08 16:54N 00°04' W 050°58'0 0.3
2017-Oct-08 16:30N 00°04' W 050°58'0 0.3
2017-Oct-08 16:00N 00°04' W 050°58'0 0.1
2017-Oct-08 15:30N 00°04' W 050°58'0 0.0
2017-Oct-08 15:00N 00°04' W 050°58'0 0.0
2017-Oct-08 14:30N 00°04' W 050°58'0 0.0
2017-Oct-08 14:00N 00°04' W 050°58'0 0.0
2017-Oct-08 13:30N 00°04' W 050°58'0 0.0
2017-Oct-08 13:00N 00°04' W 050°58'0 0.0
2017-Oct-08 12:30N 00°04' W 050°58'0 0.0
2017-Oct-08 12:00N 00°04' W 050°58'0 0.0
2017-Oct-08 11:30N 00°04' W 050°58'0 0.0
2017-Oct-08 11:00N 00°04' W 050°58'0 0.0
2017-Oct-08 10:30N 00°04' W 050°58'0 0.2
2017-Oct-08 10:00N 00°04' W 050°58'0 0.3
2017-Oct-08 09:30N 00°04' W 050°58'0 0.1
2017-Oct-08 09:00N 00°04' W 050°58'0 0.0
2017-Oct-08 08:30N 00°04' W 050°58'0 0.0
2017-Oct-08 08:00N 00°04' W 050°58'0 0.0
2017-Oct-08 07:30N 00°04' W 050°58'0 0.0
2017-Oct-08 07:00N 00°04' W 050°58'0 0.0
2017-Oct-08 06:30N 00°04' W 050°58'0 0.0
2017-Oct-08 06:00N 00°04' W 050°58'0 0.0
2017-Oct-08 05:30N 00°04' W 050°58'0 0.0
2017-Oct-08 04:54N 00°04' W 050°58'0 0.4
2017-Oct-08 04:30N 00°04' W 050°58'0 0.2
2017-Oct-08 03:42N 00°04' W 050°58'0 0.0
2017-Oct-08 03:30N 00°04' W 050°58'0 0.0
2017-Oct-08 03:00N 00°04' W 050°58'0 0.0
2017-Oct-08 02:30N 00°04' W 050°58'0 0.0
2017-Oct-08 02:00N 00°04' W 050°58'0 0.0
2017-Oct-08 01:30N 00°04' W 050°58'0 0.0
2017-Oct-08 01:00N 00°04' W 050°58'0 0.0
2017-Oct-08 00:27N 00°04' W 050°58'0 0.0
2017-Oct-07 23:57N 00°04' W 050°58'0 0.0
2017-Oct-07 23:27N 00°04' W 050°58'0 0.0
2017-Oct-07 22:57N 00°04' W 050°58'0 0.1
2017-Oct-07 22:27N 00°04' W 050°58'0 0.2
2017-Oct-07 21:57N 00°04' W 050°58'0 0.3
2017-Oct-07 21:27N 00°04' W 050°58'0 0.1
2017-Oct-07 20:57N 00°04' W 050°58'0 0.0
2017-Oct-07 20:27N 00°04' W 050°58'0 0.0
2017-Oct-07 19:57N 00°04' W 050°58'0 0.0
2017-Oct-07 19:27N 00°04' W 050°58'0 0.0
2017-Oct-07 18:57N 00°04' W 050°58'0 0.0
2017-Oct-07 18:27N 00°04' W 050°58'0 0.0
2017-Oct-07 17:57N 00°04' W 050°58'0 0.0
2017-Oct-07 17:27N 00°04' W 050°58'0 0.0
2017-Oct-07 16:57N 00°04' W 050°58'0 0.0
2017-Oct-07 16:27N 00°04' W 050°58'0 0.3
2017-Oct-07 15:57N 00°04' W 050°58'0 0.5
2017-Oct-07 15:27N 00°04' W 050°58'0 0.2
2017-Oct-07 14:15N 00°04' W 050°58'0 0.0
2017-Oct-07 13:57N 00°04' W 050°58'0 0.0
2017-Oct-07 13:27N 00°04' W 050°58'  

Dump ship's entire track history